KFYM/FYM METAR and TAF weather

Enter ICAO airport designator
Station Type Date Time Source
KFYM METAR 2022/07/01 01:00 UTC NOAA

KFYM 010100Z AUTO 20004KT 10SM SCT075 27/22 A3013 RMK A01


Station Type Date Time Source
KFYM Decoded METAR 2022/07/01 01:00 UTC NOAA

Station name not available
Jun 30, 2022 - 09:00 PM EDT / 2022.07.01 0100 UTC
Wind: from the SSW (200 degrees) at 5 MPH (4 KT):0
Visibility: 10 mile(s):0
Sky conditions: partly cloudy
Temperature: 80 F (27 C)
Dew Point: 71 F (22 C)
Relative Humidity: 74%
Pressure (altimeter): 30.13 in. Hg (1020 hPa)
ob: KFYM 010100Z AUTO 20004KT 10SM SCT075 27/22 A3013 RMK A01
cycle: 1

Station Type Date Time Source
KFYM TAF 2009/08/31 19:45 UTC NOAA

METAR KFYM 311945Z AUTO 01006KT 10SM CLR 26/11 A3009
RMK AO1 T02550111 $

Example: see airport list